sensor_id;sensor_type;location;lat;lon;timestamp;pressure;altitude;pressure_sealevel;temperature;humidity
62111;BME280;48102;47.526;19.072;2023-02-28T04:32:05;101586.63;;;0.33;78.83
62111;BME280;48102;47.526;19.072;2023-02-28T04:35:08;101580.53;;;0.28;76.64
62111;BME280;48102;47.526;19.072;2023-02-28T04:38:13;101586.56;;;0.29;76.64
62111;BME280;48102;47.526;19.072;2023-02-28T04:41:16;101585.75;;;0.33;77.48
62111;BME280;48102;47.526;19.072;2023-02-28T04:44:19;101582.34;;;0.38;74.62
62111;BME280;48102;47.526;19.072;2023-02-28T04:47:23;101585.00;;;0.40;76.61
62111;BME280;48102;47.526;19.072;2023-02-28T04:50:25;101583.31;;;0.43;78.04
62111;BME280;48102;47.526;19.072;2023-02-28T04:53:29;101576.44;;;0.48;77.32
62111;BME280;48102;47.526;19.072;2023-02-28T04:56:31;101579.06;;;0.52;77.88
62111;BME280;48102;47.526;19.072;2023-02-28T04:59:34;101583.56;;;0.66;79.14
62111;BME280;48102;47.526;19.072;2023-02-28T05:02:37;101579.19;;;0.61;75.72
62111;BME280;48102;47.526;19.072;2023-02-28T05:05:42;101574.91;;;0.67;76.90
62111;BME280;48102;47.526;19.072;2023-02-28T05:08:44;101576.66;;;0.68;74.78
62111;BME280;48102;47.526;19.072;2023-02-28T05:11:47;101583.56;;;0.68;74.91
62111;BME280;48102;47.526;19.072;2023-02-28T05:14:50;101585.28;;;0.67;76.05
62111;BME280;48102;47.526;19.072;2023-02-28T05:17:53;101586.16;;;0.66;74.75
62111;BME280;48102;47.526;19.072;2023-02-28T05:20:56;101593.06;;;0.69;74.11
62111;BME280;48102;47.526;19.072;2023-02-28T05:24:02;101600.03;;;0.73;73.77
62111;BME280;48102;47.526;19.072;2023-02-28T05:27:05;101598.31;;;0.72;77.37
62111;BME280;48102;47.526;19.072;2023-02-28T05:30:08;101601.75;;;0.72;75.29
62111;BME280;48102;47.526;19.072;2023-02-28T05:33:13;101592.28;;;0.76;75.08
62111;BME280;48102;47.526;19.072;2023-02-28T05:36:16;101602.75;;;0.84;76.74
62111;BME280;48102;47.526;19.072;2023-02-28T05:39:19;101600.16;;;0.85;74.55
62111;BME280;48102;47.526;19.072;2023-02-28T05:42:22;101599.34;;;0.89;77.36
62111;BME280;48102;47.526;19.072;2023-02-28T05:45:25;101603.63;;;0.86;76.45
62111;BME280;48102;47.526;19.072;2023-02-28T05:48:28;101596.78;;;0.92;76.37
62111;BME280;48102;47.526;19.072;2023-02-28T05:51:30;101603.72;;;0.95;72.21
62111;BME280;48102;47.526;19.072;2023-02-28T05:54:34;101607.25;;;1.00;72.45
62111;BME280;48102;47.526;19.072;2023-02-28T05:57:39;101611.59;;;1.03;73.49
62111;BME280;48102;47.526;19.072;2023-02-28T06:00:44;101615.12;;;1.11;73.35
62111;BME280;48102;47.526;19.072;2023-02-28T06:03:47;101620.37;;;1.15;72.21
62111;BME280;48102;47.526;19.072;2023-02-28T06:06:50;101619.50;;;1.15;70.87
62111;BME280;48102;47.526;19.072;2023-02-28T06:09:53;101611.75;;;1.19;72.51
62111;BME280;48102;47.526;19.072;2023-02-28T06:12:59;101617.88;;;1.28;67.32
62111;BME280;48102;47.526;19.072;2023-02-28T06:16:03;101623.97;;;1.31;67.80
62111;BME280;48102;47.526;19.072;2023-02-28T06:19:06;101628.38;;;1.41;66.20
62111;BME280;48102;47.526;19.072;2023-02-28T06:22:09;101619.66;;;1.33;66.53
62111;BME280;48102;47.526;19.072;2023-02-28T06:25:11;101620.59;;;1.40;63.98
62111;BME280;48102;47.526;19.072;2023-02-28T06:28:14;101632.78;;;1.48;65.71
62111;BME280;48102;47.526;19.072;2023-02-28T06:31:18;101629.41;;;1.62;66.18
62111;BME280;48102;47.526;19.072;2023-02-28T06:34:21;101626.06;;;1.76;64.67
62111;BME280;48102;47.526;19.072;2023-02-28T06:37:24;101636.50;;;1.84;63.43
62111;BME280;48102;47.526;19.072;2023-02-28T06:40:30;101633.97;;;1.93;63.46
62111;BME280;48102;47.526;19.072;2023-02-28T06:43:40;101628.81;;;2.03;61.77
62111;BME280;48102;47.526;19.072;2023-02-28T06:46:45;101637.56;;;2.12;63.25
62111;BME280;48102;47.526;19.072;2023-02-28T06:49:48;101641.94;;;2.21;62.46
62111;BME280;48102;47.526;19.072;2023-02-28T06:52:51;101642.88;;;2.37;64.15
62111;BME280;48102;47.526;19.072;2023-02-28T06:55:56;101649.00;;;2.48;61.66
62111;BME280;48102;47.526;19.072;2023-02-28T06:58:59;101645.56;;;2.50;59.77
62111;BME280;48102;47.526;19.072;2023-02-28T07:02:02;101634.28;;;2.58;58.99
62111;BME280;48102;47.526;19.072;2023-02-28T07:05:05;101647.34;;;2.70;58.76
62111;BME280;48102;47.526;19.072;2023-02-28T07:08:08;101644.78;;;2.79;59.20
62111;BME280;48102;47.526;19.072;2023-02-28T07:11:11;101650.87;;;2.92;58.22
62111;BME280;48102;47.526;19.072;2023-02-28T07:14:15;101650.91;;;2.95;56.84
62111;BME280;48102;47.526;19.072;2023-02-28T07:17:18;101662.19;;;2.95;57.21
62111;BME280;48102;47.526;19.072;2023-02-28T07:20:22;101658.78;;;3.24;57.25
62111;BME280;48102;47.526;19.072;2023-02-28T07:23:25;101657.91;;;3.25;55.11
62111;BME280;48102;47.526;19.072;2023-02-28T07:26:28;101658.75;;;3.18;54.59
62111;BME280;48102;47.526;19.072;2023-02-28T07:29:31;101670.03;;;3.08;55.42
62111;BME280;48102;47.526;19.072;2023-02-28T07:32:34;101669.16;;;3.03;55.88
62111;BME280;48102;47.526;19.072;2023-02-28T07:35:40;101671.75;;;3.09;56.00
62111;BME280;48102;47.526;19.072;2023-02-28T07:38:45;101664.84;;;3.18;55.83
62111;BME280;48102;47.526;19.072;2023-02-28T07:41:50;101668.28;;;3.05;55.23
62111;BME280;48102;47.526;19.072;2023-02-28T07:44:53;101671.78;;;3.18;56.16
62111;BME280;48102;47.526;19.072;2023-02-28T07:47:56;101674.41;;;3.27;55.59
62111;BME280;48102;47.526;19.072;2023-02-28T07:50:59;101676.12;;;3.26;54.28
62111;BME280;48102;47.526;19.072;2023-02-28T07:54:03;101672.69;;;3.35;54.79
62111;BME280;48102;47.526;19.072;2023-02-28T07:57:06;101671.81;;;3.36;54.99
62111;BME280;48102;47.526;19.072;2023-02-28T08:00:11;101672.66;;;3.18;56.07
62111;BME280;48102;47.526;19.072;2023-02-28T08:03:19;101670.03;;;3.14;55.85
62111;BME280;48102;47.526;19.072;2023-02-28T08:06:24;101669.16;;;3.06;57.86
62111;BME280;48102;47.526;19.072;2023-02-28T08:09:28;101673.53;;;3.23;55.72
62111;BME280;48102;47.526;19.072;2023-02-28T08:12:32;101668.38;;;3.54;53.31
62111;BME280;48102;47.526;19.072;2023-02-28T08:15:35;101674.41;;;3.93;54.18
62111;BME280;48102;47.526;19.072;2023-02-28T08:18:38;101673.53;;;4.05;52.61
62111;BME280;48102;47.526;19.072;2023-02-28T08:21:42;101678.78;;;3.98;53.03
62111;BME280;48102;47.526;19.072;2023-02-28T08:24:45;101670.03;;;4.06;52.31
62111;BME280;48102;47.526;19.072;2023-02-28T08:27:50;101671.78;;;4.16;51.75
62111;BME280;48102;47.526;19.072;2023-02-28T08:30:54;101668.22;;;4.44;51.00
62111;BME280;48102;47.526;19.072;2023-02-28T08:33:57;101665.56;;;4.63;52.29
62111;BME280;48102;47.526;19.072;2023-02-28T08:37:01;101671.59;;;4.75;51.08
62111;BME280;48102;47.526;19.072;2023-02-28T08:40:06;101665.34;;;5.04;50.25
62111;BME280;48102;47.526;19.072;2023-02-28T08:43:09;101667.84;;;5.22;48.57
62111;BME280;48102;47.526;19.072;2023-02-28T08:46:13;101666.88;;;5.40;47.97
62111;BME280;48102;47.526;19.072;2023-02-28T08:49:16;101665.91;;;5.49;46.00
62111;BME280;48102;47.526;19.072;2023-02-28T08:52:19;101664.06;;;5.60;47.00
62111;BME280;48102;47.526;19.072;2023-02-28T08:55:22;101671.03;;;5.63;46.73
62111;BME280;48102;47.526;19.072;2023-02-28T08:58:25;101667.19;;;6.03;47.36
62111;BME280;48102;47.526;19.072;2023-02-28T09:01:28;101663.63;;;6.14;46.05
62111;BME280;48102;47.526;19.072;2023-02-28T09:04:33;101660.37;;;6.67;45.82
62111;BME280;48102;47.526;19.072;2023-02-28T09:07:36;101659.75;;;6.48;45.28
62111;BME280;48102;47.526;19.072;2023-02-28T09:10:39;101660.78;;;6.35;45.77
62111;BME280;48102;47.526;19.072;2023-02-28T09:13:42;101662.56;;;6.32;45.56
62111;BME280;48102;47.526;19.072;2023-02-28T09:21:08;101657.13;;;6.48;45.80
62111;BME280;48102;47.526;19.072;2023-02-28T09:24:11;101664.81;;;6.62;45.21
62111;BME280;48102;47.526;19.072;2023-02-28T09:27:16;101663.81;;;6.72;45.92
62111;BME280;48102;47.526;19.072;2023-02-28T09:30:20;101667.94;;;6.90;45.44
62111;BME280;48102;47.526;19.072;2023-02-28T09:33:23;101670.47;;;6.99;45.26
62111;BME280;48102;47.526;19.072;2023-02-28T09:36:26;101666.97;;;6.97;44.23
62111;BME280;48102;47.526;19.072;2023-02-28T09:39:46;101672.28;;;6.93;44.59
62111;BME280;48102;47.526;19.072;2023-02-28T09:42:53;101681.69;;;7.08;44.55
62111;BME280;48102;47.526;19.072;2023-02-28T09:46:51;101672.66;;;7.28;45.25
62111;BME280;48102;47.526;19.072;2023-02-28T09:49:47;101676.63;;;7.54;45.22
62111;BME280;48102;47.526;19.072;2023-02-28T09:52:50;101661.88;;;7.47;44.74
62111;BME280;48102;47.526;19.072;2023-02-28T09:55:55;101671.31;;;7.60;45.15
62111;BME280;48102;47.526;19.072;2023-02-28T10:09:26;101665.94;;;8.62;43.21
62111;BME280;48102;47.526;19.072;2023-02-28T10:12:31;101654.78;;;8.52;43.72
62111;BME280;48102;47.526;19.072;2023-02-28T10:15:36;101655.69;;;8.92;42.56
62111;BME280;48102;47.526;19.072;2023-02-28T10:21:59;101651.69;;;8.74;43.10
62111;BME280;48102;47.526;19.072;2023-02-28T10:25:15;101656.87;;;9.17;41.45
62111;BME280;48102;47.526;19.072;2023-02-28T10:28:18;101648.31;;;9.45;41.03
62111;BME280;48102;47.526;19.072;2023-02-28T10:31:21;101650.25;;;9.38;40.83
62111;BME280;48102;47.526;19.072;2023-02-28T10:34:27;101648.69;;;9.29;42.10
62111;BME280;48102;47.526;19.072;2023-02-28T10:37:30;101642.97;;;9.12;40.98
62111;BME280;48102;47.526;19.072;2023-02-28T10:40:35;101640.00;;;8.87;42.29
62111;BME280;48102;47.526;19.072;2023-02-28T10:43:39;101640.56;;;8.61;41.34
62111;BME280;48102;47.526;19.072;2023-02-28T10:46:42;101633.84;;;8.48;42.77
62111;BME280;48102;47.526;19.072;2023-02-28T10:49:49;101623.09;;;8.60;42.62
62111;BME280;48102;47.526;19.072;2023-02-28T10:52:55;101620.75;;;8.46;42.31
62111;BME280;48102;47.526;19.072;2023-02-28T10:59:28;101612.72;;;8.93;41.78
62111;BME280;48102;47.526;19.072;2023-02-28T11:02:36;101613.88;;;8.79;40.71
62111;BME280;48102;47.526;19.072;2023-02-28T11:05:45;101616.03;;;8.62;41.94
62111;BME280;48102;47.526;19.072;2023-02-28T11:08:52;101607.63;;;8.45;42.62
62111;BME280;48102;47.526;19.072;2023-02-28T11:11:55;101614.69;;;8.43;42.54
62111;BME280;48102;47.526;19.072;2023-02-28T11:15:04;101618.44;;;8.73;43.21
62111;BME280;48102;47.526;19.072;2023-02-28T11:21:27;101610.69;;;9.77;41.53
62111;BME280;48102;47.526;19.072;2023-02-28T11:24:35;101610.59;;;10.13;41.72
62111;BME280;48102;47.526;19.072;2023-02-28T11:27:45;101613.78;;;10.25;41.11
62111;BME280;48102;47.526;19.072;2023-02-28T11:31:19;101605.69;;;10.63;40.34
62111;BME280;48102;47.526;19.072;2023-02-28T11:34:26;101602.63;;;10.76;41.39
62111;BME280;48102;47.526;19.072;2023-02-28T11:37:31;101602.03;;;10.04;40.43
62111;BME280;48102;47.526;19.072;2023-02-28T11:44:09;101598.41;;;10.41;40.12
62111;BME280;48102;47.526;19.072;2023-02-28T11:54:28;101597.25;;;10.19;41.03
62111;BME280;48102;47.526;19.072;2023-02-28T12:04:59;101584.44;;;9.40;43.18
62111;BME280;48102;47.526;19.072;2023-02-28T12:17:46;101568.28;;;11.86;37.47
62111;BME280;48102;47.526;19.072;2023-02-28T12:21:04;101574.91;;;12.21;38.27
62111;BME280;48102;47.526;19.072;2023-02-28T12:27:36;101562.97;;;12.58;36.87
62111;BME280;48102;47.526;19.072;2023-02-28T12:30:53;101548.25;;;12.96;36.61
62111;BME280;48102;47.526;19.072;2023-02-28T12:34:13;101549.50;;;12.64;36.13
62111;BME280;48102;47.526;19.072;2023-02-28T12:37:26;101544.28;;;13.06;36.52
62111;BME280;48102;47.526;19.072;2023-02-28T12:40:44;101539.53;;;13.14;35.60
62111;BME280;48102;47.526;19.072;2023-02-28T12:43:55;101543.72;;;12.98;35.83
62111;BME280;48102;47.526;19.072;2023-02-28T12:47:04;101544.44;;;13.45;35.57
62111;BME280;48102;47.526;19.072;2023-02-28T12:50:10;101531.53;;;13.58;35.76
62111;BME280;48102;47.526;19.072;2023-02-28T12:57:13;101543.06;;;13.57;35.44
62111;BME280;48102;47.526;19.072;2023-02-28T13:00:19;101536.34;;;13.28;36.73
62111;BME280;48102;47.526;19.072;2023-02-28T13:04:51;101536.34;;;13.28;36.24
62111;BME280;48102;47.526;19.072;2023-02-28T13:10:47;101524.44;;;13.16;38.20
62111;BME280;48102;47.526;19.072;2023-02-28T13:14:05;101522.25;;;12.40;39.12
62111;BME280;48102;47.526;19.072;2023-02-28T13:17:20;101521.87;;;12.25;38.87
62111;BME280;48102;47.526;19.072;2023-02-28T13:20:25;101519.72;;;12.37;38.56
62111;BME280;48102;47.526;19.072;2023-02-28T13:36:47;101512.41;;;12.20;38.15
62111;BME280;48102;47.526;19.072;2023-02-28T13:40:27;101511.16;;;13.18;38.50
62111;BME280;48102;47.526;19.072;2023-02-28T13:53:37;101498.56;;;15.49;33.79
62111;BME280;48102;47.526;19.072;2023-02-28T14:01:02;101496.50;;;21.38;25.37
62111;BME280;48102;47.526;19.072;2023-02-28T14:07:37;101480.28;;;23.27;22.65
62111;BME280;48102;47.526;19.072;2023-02-28T14:10:47;101473.06;;;19.05;26.77
62111;BME280;48102;47.526;19.072;2023-02-28T14:13:50;101471.78;;;16.68;30.49
62111;BME280;48102;47.526;19.072;2023-02-28T14:16:54;101475.00;;;14.91;33.56
62111;BME280;48102;47.526;19.072;2023-02-28T14:19:58;101473.91;;;13.84;34.95
62111;BME280;48102;47.526;19.072;2023-02-28T14:36:36;101462.72;;;10.26;42.27
62111;BME280;48102;47.526;19.072;2023-02-28T14:39:41;101470.00;;;9.87;42.51
62111;BME280;48102;47.526;19.072;2023-02-28T14:42:55;101470.59;;;9.66;43.59
62111;BME280;48102;47.526;19.072;2023-02-28T14:46:02;101463.91;;;9.21;43.75
62111;BME280;48102;47.526;19.072;2023-02-28T14:49:17;101459.69;;;8.80;44.94
62111;BME280;48102;47.526;19.072;2023-02-28T14:52:23;101459.28;;;8.61;45.67
62111;BME280;48102;47.526;19.072;2023-02-28T14:55:36;101467.97;;;8.65;46.07
62111;BME280;48102;47.526;19.072;2023-02-28T14:58:39;101467.66;;;8.77;45.70
62111;BME280;48102;47.526;19.072;2023-02-28T15:01:42;101464.44;;;8.66;46.26
62111;BME280;48102;47.526;19.072;2023-02-28T15:04:55;101469.62;;;8.69;46.11
62111;BME280;48102;47.526;19.072;2023-02-28T15:11:17;101463.63;;;8.64;46.49
62111;BME280;48102;47.526;19.072;2023-02-28T15:14:22;101471.63;;;8.58;47.40
62111;BME280;48102;47.526;19.072;2023-02-28T15:17:25;101467.50;;;8.47;47.24
62111;BME280;48102;47.526;19.072;2023-02-28T15:20:28;101478.22;;;8.38;47.23
62111;BME280;48102;47.526;19.072;2023-02-28T15:23:31;101478.50;;;8.23;48.26
62111;BME280;48102;47.526;19.072;2023-02-28T15:26:39;101476.19;;;8.09;48.30
62111;BME280;48102;47.526;19.072;2023-02-28T15:29:49;101478.06;;;8.02;48.66
62111;BME280;48102;47.526;19.072;2023-02-28T15:36:17;101471.94;;;7.59;49.42
62111;BME280;48102;47.526;19.072;2023-02-28T15:39:26;101472.16;;;7.48;50.58
62111;BME280;48102;47.526;19.072;2023-02-28T15:42:32;101471.63;;;7.31;51.61
62111;BME280;48102;47.526;19.072;2023-02-28T15:45:38;101471.09;;;7.10;51.47
62111;BME280;48102;47.526;19.072;2023-02-28T15:48:50;101469.62;;;6.94;53.15
62111;BME280;48102;47.526;19.072;2023-02-28T15:51:56;101462.94;;;6.76;54.34
62111;BME280;48102;47.526;19.072;2023-02-28T15:55:08;101463.22;;;6.58;53.97
62111;BME280;48102;47.526;19.072;2023-02-28T15:58:15;101465.25;;;6.40;56.65
62111;BME280;48102;47.526;19.072;2023-02-28T16:01:26;101464.59;;;6.23;57.73
62111;BME280;48102;47.526;19.072;2023-02-28T16:04:31;101466.53;;;6.09;57.80
62111;BME280;48102;47.526;19.072;2023-02-28T16:07:41;101464.03;;;6.01;58.94
62111;BME280;48102;47.526;19.072;2023-02-28T16:10:46;101469.34;;;5.93;59.48
62111;BME280;48102;47.526;19.072;2023-02-28T16:13:50;101472.12;;;5.78;60.99
62111;BME280;48102;47.526;19.072;2023-02-28T16:16:57;101471.31;;;5.73;60.40
62111;BME280;48102;47.526;19.072;2023-02-28T16:23:19;101481.13;;;5.54;63.39
62111;BME280;48102;47.526;19.072;2023-02-28T16:26:23;101482.84;;;5.55;62.63
